createdAt,value
2019-01-11T00:00:09.395Z,102187.09
2019-01-11T00:02:41.617Z,102180.06
2019-01-11T00:05:12.020Z,102190.59
2019-01-11T00:07:43.087Z,102179.13
2019-01-11T00:10:13.569Z,102179.21
2019-01-11T00:12:44.356Z,102180.81
2019-01-11T00:15:14.653Z,102177.06
2019-01-11T00:17:44.972Z,102172.91
2019-01-11T00:20:15.435Z,102171.98
2019-01-11T00:22:47.503Z,102167.97
2019-01-11T00:25:17.768Z,102164.97
2019-01-11T00:27:48.175Z,102171.67
2019-01-11T00:30:18.533Z,102167.70
2019-01-11T00:32:49.320Z,102166.77
2019-01-11T00:35:19.620Z,102165.49
2019-01-11T00:37:51.405Z,102171.28
2019-01-11T00:40:21.701Z,102168.62
2019-01-11T00:42:52.979Z,102166.81
2019-01-11T00:45:23.250Z,102159.41
2019-01-11T00:47:55.175Z,102159.96
2019-01-11T00:50:25.496Z,102157.08
2019-01-11T00:52:57.764Z,102149.17
2019-01-11T00:55:28.061Z,102143.80
2019-01-11T00:57:58.475Z,102140.47
2019-01-11T01:00:28.918Z,102147.73
2019-01-11T01:03:00.202Z,102145.96
2019-01-11T01:05:30.494Z,102144.86
2019-01-11T01:08:01.665Z,102144.77
2019-01-11T01:10:32.957Z,102145.50
2019-01-11T01:13:03.953Z,102141.81
2019-01-11T01:15:34.232Z,102146.46
2019-01-11T01:18:04.836Z,102142.11
2019-01-11T01:20:35.212Z,102142.01
2019-01-11T01:23:07.000Z,102145.37
2019-01-11T01:25:37.327Z,102136.27
2019-01-11T01:28:07.873Z,102131.48
2019-01-11T01:30:38.153Z,102132.48
2019-01-11T01:33:09.429Z,102129.71
2019-01-11T01:35:39.701Z,102138.47
2019-01-11T01:38:11.282Z,102140.15
2019-01-11T01:40:42.607Z,102140.62
2019-01-11T01:43:13.534Z,102137.00
2019-01-11T01:45:44.033Z,102133.61
2019-01-11T01:48:15.972Z,102131.16
2019-01-11T01:50:46.270Z,102125.22
2019-01-11T01:53:19.306Z,102125.55
2019-01-11T01:55:49.584Z,102122.80
2019-01-11T01:58:19.978Z,102132.83
2019-01-11T02:00:50.280Z,102122.11
2019-01-11T02:03:21.099Z,102120.47
2019-01-11T02:05:51.470Z,102119.69
2019-01-11T02:08:23.002Z,102123.00
2019-01-11T02:10:53.285Z,102117.86
2019-01-11T02:13:24.446Z,102118.88
2019-01-11T02:15:54.733Z,102116.72
2019-01-11T02:18:25.099Z,102117.27
2019-01-11T02:20:55.606Z,102119.97
2019-01-11T02:23:27.521Z,102114.47
2019-01-11T02:25:57.852Z,102106.58
2019-01-11T02:28:28.192Z,102108.90
2019-01-11T02:30:58.490Z,102107.99
2019-01-11T02:33:29.375Z,102094.80
2019-01-11T02:35:59.640Z,102102.41
2019-01-11T02:38:32.305Z,102095.67
2019-01-11T02:41:02.848Z,102093.70
2019-01-11T02:43:33.787Z,102088.88
2019-01-11T02:46:04.056Z,102088.32
2019-01-11T02:48:35.118Z,102086.38
2019-01-11T02:51:05.406Z,102079.17
2019-01-11T02:53:36.689Z,102082.84
2019-01-11T02:56:07.079Z,102072.89
2019-01-11T02:58:37.814Z,102070.30
2019-01-11T03:01:08.124Z,102063.39
2019-01-11T03:03:39.085Z,102064.86
2019-01-11T03:06:09.372Z,102057.80
2019-01-11T03:08:40.354Z,102058.14
2019-01-11T03:11:10.644Z,102066.79
2019-01-11T03:13:41.430Z,102057.22
2019-01-11T03:16:11.710Z,102053.81
2019-01-11T03:18:42.325Z,102054.55
2019-01-11T03:21:12.598Z,102048.55
2019-01-11T03:23:44.669Z,102046.72
2019-01-11T03:26:15.128Z,102051.34
2019-01-11T03:28:45.419Z,102050.63
2019-01-11T03:31:24.892Z,102042.75
2019-01-11T03:33:55.799Z,102040.02
2019-01-11T03:36:26.084Z,102034.80
2019-01-11T03:38:56.365Z,102033.90
2019-01-11T03:41:26.743Z,102026.98
2019-01-11T03:43:57.509Z,102025.78
2019-01-11T03:46:27.907Z,102025.52
2019-01-11T03:48:59.836Z,102023.67
2019-01-11T03:51:30.232Z,102013.44
2019-01-11T03:54:00.964Z,102015.25
2019-01-11T03:56:31.808Z,102015.24
2019-01-11T03:59:02.069Z,102007.10
2019-01-11T04:01:32.473Z,102012.19
2019-01-11T04:04:03.270Z,102002.25
2019-01-11T04:06:33.551Z,102005.20
2019-01-11T04:09:04.980Z,101996.78
2019-01-11T04:11:35.243Z,102002.58
2019-01-11T04:14:05.771Z,102003.36
2019-01-11T04:16:36.550Z,101997.38
2019-01-11T04:19:12.866Z,101994.58
2019-01-11T04:21:51.363Z,101991.63
2019-01-11T04:24:23.274Z,101991.09
2019-01-11T04:26:54.352Z,101989.44
2019-01-11T04:29:26.043Z,101987.58
2019-01-11T04:31:57.458Z,101986.25
2019-01-11T04:34:27.754Z,101982.77
2019-01-11T04:36:58.029Z,101980.84
2019-01-11T04:39:28.790Z,101982.67
2019-01-11T04:41:59.663Z,101980.40
2019-01-11T04:44:30.060Z,101975.05
2019-01-11T04:47:02.084Z,101973.61
2019-01-11T04:49:33.404Z,101973.58
2019-01-11T04:52:04.339Z,101966.59
2019-01-11T04:54:34.612Z,101965.81
2019-01-11T04:57:05.066Z,101965.39
2019-01-11T04:59:35.351Z,101966.05
2019-01-11T05:02:06.798Z,101960.77
2019-01-11T05:04:37.078Z,101968.52
2019-01-11T05:07:07.352Z,101964.39
2019-01-11T05:09:38.081Z,101955.48
2019-01-11T05:12:10.333Z,101950.73
2019-01-11T05:14:40.619Z,101952.92
2019-01-11T05:17:10.924Z,101954.95
2019-01-11T05:19:41.739Z,101950.34
2019-01-11T05:22:12.601Z,101948.11
2019-01-11T05:24:43.086Z,101950.95
2019-01-11T05:27:13.435Z,101951.34
2019-01-11T05:29:43.713Z,101955.23
2019-01-11T05:32:15.034Z,101954.34
2019-01-11T05:34:45.849Z,101949.85
2019-01-11T05:37:17.069Z,101954.33
2019-01-11T05:39:47.420Z,101942.15
2019-01-11T05:42:17.712Z,101939.84
2019-01-11T05:44:47.989Z,101933.87
2019-01-11T05:47:18.808Z,101943.77
2019-01-11T05:49:49.747Z,101938.49
2019-01-11T05:52:20.112Z,101935.50
2019-01-11T05:54:50.406Z,101938.20
2019-01-11T05:57:21.279Z,101941.34
2019-01-11T05:59:52.738Z,101941.41
2019-01-11T06:02:23.058Z,101944.06
2019-01-11T06:05:05.634Z,101939.40
2019-01-11T06:07:43.947Z,101940.90
2019-01-11T06:10:16.372Z,101939.59
2019-01-11T06:12:46.681Z,101927.81
2019-01-11T06:15:17.076Z,101929.47
2019-01-11T06:17:47.440Z,101932.07
2019-01-11T06:20:19.856Z,101943.20
2019-01-11T06:22:50.162Z,101935.05
2019-01-11T06:25:20.452Z,101935.86
2019-01-11T06:27:50.772Z,101928.14
2019-01-11T06:30:21.543Z,101934.26
2019-01-11T06:32:51.861Z,101938.34
2019-01-11T06:35:22.167Z,101940.55
2019-01-11T06:37:52.467Z,101930.38
2019-01-11T06:40:23.142Z,101927.11
2019-01-11T06:42:53.938Z,101930.47
2019-01-11T06:45:24.218Z,101939.68
2019-01-11T06:47:54.528Z,101943.55
2019-01-11T06:50:25.581Z,101951.59
2019-01-11T06:52:55.976Z,101943.75
2019-01-11T06:55:26.875Z,101942.92
2019-01-11T06:57:57.282Z,101940.55
2019-01-11T07:00:27.671Z,101938.88
2019-01-11T07:02:57.984Z,101940.11
2019-01-11T07:05:28.787Z,101941.91
2019-01-11T07:07:59.059Z,101939.20
2019-01-11T07:10:29.693Z,101935.78
2019-01-11T07:12:59.981Z,101937.58
2019-01-11T07:15:32.083Z,101937.14
2019-01-11T07:18:02.392Z,101944.22
2019-01-11T07:20:32.823Z,101945.66
2019-01-11T07:23:03.126Z,101946.36
2019-01-11T07:25:34.003Z,101946.08
2019-01-11T07:28:04.330Z,101939.53
2019-01-11T07:30:50.103Z,101947.95
2019-01-11T07:33:22.031Z,101948.82
2019-01-11T07:35:56.506Z,101946.62
2019-01-11T07:38:26.814Z,101947.41
2019-01-11T07:40:57.157Z,101950.05
2019-01-11T07:43:27.523Z,101950.89
2019-01-11T07:45:58.408Z,101950.98
2019-01-11T07:48:28.705Z,101953.66
2019-01-11T07:51:01.214Z,101955.89
2019-01-11T07:53:31.532Z,101957.67
2019-01-11T07:56:02.681Z,101956.77
2019-01-11T07:58:32.958Z,101951.95
2019-01-11T08:01:03.347Z,101954.16
2019-01-11T08:03:33.748Z,101949.69
2019-01-11T08:06:06.130Z,101946.91
2019-01-11T08:08:36.411Z,101943.78
2019-01-11T08:11:06.802Z,101943.70
2019-01-11T08:13:37.109Z,101938.96
2019-01-11T08:16:08.358Z,101940.73
2019-01-11T08:18:38.765Z,101939.86
2019-01-11T08:21:09.598Z,101936.38
2019-01-11T08:23:39.904Z,101947.40
2019-01-11T08:26:11.433Z,101946.08
2019-01-11T08:28:41.705Z,101950.54
2019-01-11T08:31:12.034Z,101944.34
2019-01-11T08:33:42.336Z,101947.42
2019-01-11T08:36:14.669Z,101944.38
2019-01-11T08:38:44.955Z,101942.63
2019-01-11T08:41:15.340Z,101947.47
2019-01-11T08:43:45.650Z,101953.11
2019-01-11T08:46:16.879Z,101950.05
2019-01-11T08:48:47.173Z,101954.52
2019-01-11T08:51:19.880Z,101949.20
2019-01-11T08:53:50.312Z,101949.67
2019-01-11T08:56:21.196Z,101951.05
2019-01-11T08:58:51.510Z,101957.20
2019-01-11T09:01:21.871Z,101956.30
2019-01-11T09:03:52.333Z,101946.66
2019-01-11T09:06:24.741Z,101951.50
2019-01-11T09:08:55.031Z,101939.61
2019-01-11T09:11:25.774Z,101930.78
2019-01-11T09:13:56.093Z,101935.66
2019-01-11T09:16:26.941Z,101935.60
2019-01-11T09:18:59.768Z,101936.52
2019-01-11T09:21:31.095Z,101942.27
2019-01-11T09:24:01.444Z,101953.73
2019-01-11T09:26:32.263Z,101944.45
2019-01-11T09:29:02.946Z,101946.16
2019-01-11T09:31:33.596Z,101950.63
2019-01-11T09:34:03.878Z,101951.10
2019-01-11T09:36:35.690Z,101934.72
2019-01-11T09:39:09.287Z,101936.56
2019-01-11T09:41:39.632Z,101946.70
2019-01-11T09:44:09.939Z,101953.32
2019-01-11T09:46:40.799Z,101955.94
2019-01-11T09:49:11.084Z,101957.31
2019-01-11T09:51:44.097Z,101957.30
2019-01-11T09:54:14.389Z,101955.55
2019-01-11T09:56:45.298Z,101955.54
2019-01-11T09:59:15.579Z,101953.36
2019-01-11T10:01:47.545Z,101955.11
2019-01-11T10:04:23.073Z,101953.35
2019-01-11T10:07:05.827Z,101949.84
2019-01-11T10:09:38.434Z,101954.66
2019-01-11T10:12:09.057Z,101949.83
2019-01-11T10:14:39.328Z,101949.37
2019-01-11T10:17:09.623Z,101949.38
2019-01-11T10:19:40.507Z,101954.66
2019-01-11T10:22:10.812Z,101953.75
2019-01-11T10:24:42.289Z,101951.56
2019-01-11T10:27:12.611Z,101946.70
2019-01-11T10:29:43.490Z,101946.70
2019-01-11T10:32:13.829Z,101943.19
2019-01-11T10:34:44.159Z,101952.92
2019-01-11T10:37:14.469Z,101946.71
2019-01-11T10:39:44.728Z,101945.80
2019-01-11T10:42:16.104Z,101937.91
2019-01-11T10:44:46.411Z,101933.05
2019-01-11T10:47:16.813Z,101933.95
2019-01-11T10:49:48.082Z,101936.60
2019-01-11T10:52:20.478Z,101935.30
2019-01-11T10:54:50.758Z,101938.80
2019-01-11T10:57:21.646Z,101933.94
2019-01-11T10:59:51.974Z,101930.91
2019-01-11T11:02:22.727Z,101932.22
2019-01-11T11:04:53.018Z,101929.55
2019-01-11T11:07:23.408Z,101922.91
2019-01-11T11:09:53.686Z,101922.95
2019-01-11T11:12:25.519Z,101909.73
2019-01-11T11:14:55.899Z,101918.06
2019-01-11T11:17:26.287Z,101914.95
2019-01-11T11:19:56.566Z,101914.48
2019-01-11T11:22:27.882Z,101917.99
2019-01-11T11:24:58.203Z,101919.27
2019-01-11T11:27:28.533Z,101913.16
2019-01-11T11:29:59.373Z,101907.45
2019-01-11T11:32:47.780Z,101908.70
2019-01-11T11:35:18.450Z,101910.09
2019-01-11T11:37:48.735Z,101906.48
2019-01-11T11:40:19.139Z,101907.36
2019-01-11T11:42:49.553Z,101900.78
2019-01-11T11:45:20.466Z,101897.72
2019-01-11T11:47:50.747Z,101892.41
2019-01-11T11:50:21.713Z,101900.41
2019-01-11T11:52:52.648Z,101892.78
2019-01-11T11:55:23.965Z,101896.27
2019-01-11T11:57:54.759Z,101894.00
2019-01-11T12:00:27.830Z,101894.87
2019-01-11T12:02:58.136Z,101897.52
2019-01-11T12:05:28.426Z,101899.81
2019-01-11T12:07:59.591Z,101891.47
2019-01-11T12:10:30.928Z,101887.45
2019-01-11T12:13:01.756Z,101873.28
2019-01-11T12:15:32.099Z,101872.84
2019-01-11T12:18:02.397Z,101875.84
2019-01-11T12:20:33.635Z,101880.73
2019-01-11T12:23:04.577Z,101878.58
2019-01-11T12:25:36.354Z,101867.13
2019-01-11T12:28:07.028Z,101863.59
2019-01-11T12:30:37.415Z,101856.28
2019-01-11T12:33:08.238Z,101859.84
2019-01-11T12:35:38.581Z,101851.41
2019-01-11T12:38:13.668Z,101849.23
2019-01-11T12:40:40.928Z,101846.83
2019-01-11T12:43:11.251Z,101840.27
2019-01-11T12:45:44.451Z,101839.08
2019-01-11T12:48:14.819Z,101839.09
2019-01-11T12:50:45.160Z,101833.37
2019-01-11T12:53:16.830Z,101833.30
2019-01-11T12:55:47.671Z,101826.64
2019-01-11T12:58:18.704Z,101828.42
2019-01-11T13:00:49.275Z,101826.59
2019-01-11T13:03:19.629Z,101816.35
2019-01-11T13:05:50.119Z,101824.77
2019-01-11T13:08:20.896Z,101824.27
2019-01-11T13:10:51.550Z,101821.81
2019-01-11T13:13:21.973Z,101821.40
2019-01-11T13:15:52.342Z,101811.09
2019-01-11T13:18:22.653Z,101803.17
2019-01-11T13:20:52.988Z,101808.72
2019-01-11T13:23:23.909Z,101808.68
2019-01-11T13:25:54.353Z,101806.33
2019-01-11T13:28:24.661Z,101806.17
2019-01-11T13:30:54.952Z,101809.08
2019-01-11T13:33:25.321Z,101801.03
2019-01-11T13:35:56.940Z,101800.44
2019-01-11T13:38:27.764Z,101799.11
2019-01-11T13:40:58.054Z,101798.64
2019-01-11T13:43:28.364Z,101797.00
2019-01-11T13:45:59.645Z,101796.53
2019-01-11T13:48:29.913Z,101788.96
2019-01-11T13:51:01.863Z,101793.27
2019-01-11T13:53:33.900Z,101787.92
2019-01-11T13:56:04.292Z,101788.58
2019-01-11T13:58:34.596Z,101785.80
2019-01-11T14:01:05.507Z,101791.06
2019-01-11T14:03:36.390Z,101785.97
2019-01-11T14:06:07.809Z,101782.47
2019-01-11T14:08:38.110Z,101779.28
2019-01-11T14:11:08.540Z,101779.98
2019-01-11T14:13:39.418Z,101782.27
2019-01-11T14:16:09.800Z,101778.84
2019-01-11T14:18:40.154Z,101781.79
2019-01-11T14:21:10.443Z,101774.39
2019-01-11T14:23:41.832Z,101780.09
2019-01-11T14:26:12.157Z,101773.84
2019-01-11T14:28:42.454Z,101764.58
2019-01-11T14:31:12.880Z,101770.19
2019-01-11T14:33:43.722Z,101769.34
2019-01-11T14:36:14.053Z,101762.33
2019-01-11T14:38:44.341Z,101769.42
2019-01-11T14:41:15.890Z,101770.19
2019-01-11T14:43:46.874Z,101771.91
2019-01-11T14:46:17.242Z,101772.84
2019-01-11T14:48:47.548Z,101777.52
2019-01-11T14:51:18.030Z,101784.00
2019-01-11T14:53:49.735Z,101776.97
2019-01-11T14:56:21.331Z,101776.59
2019-01-11T14:58:51.642Z,101780.65
2019-01-11T15:01:22.270Z,101778.97
2019-01-11T15:03:53.107Z,101782.77
2019-01-11T15:06:24.439Z,101777.33
2019-01-11T15:08:54.732Z,101771.68
2019-01-11T15:11:25.100Z,101779.03
2019-01-11T15:13:56.337Z,101774.24
2019-01-11T15:16:26.928Z,101779.02
2019-01-11T15:18:57.243Z,101781.67
2019-01-11T15:21:27.525Z,101786.44
2019-01-11T15:23:58.376Z,101785.60
2019-01-11T15:26:28.681Z,101790.17
2019-01-11T15:29:00.722Z,101789.13
2019-01-11T15:31:31.299Z,101784.19
2019-01-11T15:34:02.154Z,101781.34
2019-01-11T15:36:32.436Z,101781.09
2019-01-11T15:39:02.771Z,101785.03
2019-01-11T15:41:33.481Z,101779.19
2019-01-11T15:44:04.201Z,101784.44
2019-01-11T15:46:35.777Z,101785.95
2019-01-11T15:49:06.221Z,101783.56
2019-01-11T15:51:36.502Z,101777.16
2019-01-11T15:54:08.116Z,101782.13
2019-01-11T15:56:38.917Z,101781.58
2019-01-11T15:59:09.206Z,101775.84
2019-01-11T16:01:40.393Z,101781.97
2019-01-11T16:04:10.846Z,101776.82
2019-01-11T16:06:43.263Z,101781.55
2019-01-11T16:10:00.527Z,101777.91
2019-01-11T16:12:39.682Z,101781.22
2019-01-11T16:15:41.433Z,101777.02
2019-01-11T16:18:24.930Z,101780.91
2019-01-11T16:20:57.045Z,101771.09
2019-01-11T16:23:27.361Z,101767.05
2019-01-11T16:25:57.667Z,101766.61
2019-01-11T16:28:28.069Z,101769.21
2019-01-11T16:30:58.856Z,101765.78
2019-01-11T16:33:29.181Z,101771.14
2019-01-11T16:35:59.483Z,101771.57
2019-01-11T16:38:31.167Z,101772.27
2019-01-11T16:41:01.905Z,101777.95
2019-01-11T16:43:32.232Z,101770.93
2019-01-11T16:46:02.698Z,101773.05
2019-01-11T16:48:33.876Z,101774.66
2019-01-11T16:51:05.631Z,101778.21
2019-01-11T16:53:37.446Z,101785.33
2019-01-11T16:56:09.902Z,101782.08
2019-01-11T16:58:40.298Z,101778.00
2019-01-11T17:01:10.630Z,101787.67
2019-01-11T17:03:40.957Z,101786.88
2019-01-11T17:06:11.719Z,101785.11
2019-01-11T17:08:42.674Z,101794.39
2019-01-11T17:11:13.007Z,101795.87
2019-01-11T17:13:43.304Z,101786.72
2019-01-11T17:16:13.860Z,101795.00
2019-01-11T17:18:44.674Z,101789.50
2019-01-11T17:21:15.102Z,101793.02
2019-01-11T17:23:45.949Z,101796.77
2019-01-11T17:26:16.522Z,101791.83
2019-01-11T17:28:46.766Z,101801.13
2019-01-11T17:31:17.101Z,101791.38
2019-01-11T17:33:47.967Z,101796.64
2019-01-11T17:36:18.262Z,101802.94
2019-01-11T17:38:49.253Z,101802.23
2019-01-11T17:41:19.560Z,101809.19
2019-01-11T17:43:49.964Z,101807.42
2019-01-11T17:46:20.338Z,101806.55
2019-01-11T17:48:51.054Z,101816.02
2019-01-11T17:51:21.346Z,101810.62
2019-01-11T17:53:53.028Z,101814.49
2019-01-11T17:56:24.883Z,101814.05
2019-01-11T17:58:55.613Z,101813.13
2019-01-11T18:01:26.385Z,101815.09
2019-01-11T18:03:56.732Z,101818.09
2019-01-11T18:06:27.049Z,101812.28
2019-01-11T18:08:58.402Z,101814.42
2019-01-11T18:11:29.378Z,101813.81
2019-01-11T18:13:59.775Z,101820.13
2019-01-11T18:16:30.163Z,101820.67
2019-01-11T18:19:00.478Z,101812.98
2019-01-11T18:21:31.428Z,101824.77
2019-01-11T18:24:01.747Z,101830.94
2019-01-11T18:26:33.521Z,101831.41
2019-01-11T18:29:04.009Z,101832.27
2019-01-11T18:31:34.905Z,101836.86
2019-01-11T18:34:05.421Z,101830.34
2019-01-11T18:36:35.864Z,101829.94
2019-01-11T18:39:08.904Z,101836.02
2019-01-11T18:41:40.798Z,101840.47
2019-01-11T18:44:11.098Z,101839.36
2019-01-11T18:46:41.431Z,101844.18
2019-01-11T18:49:11.715Z,101845.71
2019-01-11T18:51:42.630Z,101840.63
2019-01-11T18:54:12.911Z,101843.59
2019-01-11T18:56:44.512Z,101846.65
2019-01-11T18:59:14.797Z,101835.33
2019-01-11T19:01:45.677Z,101842.23
2019-01-11T19:04:16.082Z,101849.06
2019-01-11T19:06:46.403Z,101849.02
2019-01-11T19:09:16.774Z,101849.61
2019-01-11T19:11:48.190Z,101854.19
2019-01-11T19:14:18.506Z,101852.59
2019-01-11T19:16:48.963Z,101862.25
2019-01-11T19:19:19.238Z,101859.19
2019-01-11T19:21:50.130Z,101859.55
2019-01-11T19:24:20.454Z,101848.92
2019-01-11T19:26:51.681Z,101855.70
2019-01-11T19:29:22.048Z,101860.33
2019-01-11T19:31:52.846Z,101867.08
2019-01-11T19:34:23.143Z,101865.52
2019-01-11T19:36:53.444Z,101861.81
2019-01-11T19:39:23.781Z,101861.72
2019-01-11T19:41:54.537Z,101865.63
2019-01-11T19:44:25.700Z,101867.95
2019-01-11T19:46:56.002Z,101868.03
2019-01-11T19:49:26.307Z,101858.22
2019-01-11T19:51:57.091Z,101862.54
2019-01-11T19:54:27.508Z,101870.05
2019-01-11T19:56:59.154Z,101865.13
2019-01-11T19:59:31.159Z,101869.98
2019-01-11T20:02:01.993Z,101872.41
2019-01-11T20:04:32.323Z,101872.28
2019-01-11T20:07:02.629Z,101877.23
2019-01-11T20:09:33.162Z,101869.13
2019-01-11T20:12:04.042Z,101873.75
2019-01-11T20:14:38.124Z,101865.03
2019-01-11T20:17:13.997Z,101868.52
2019-01-11T20:19:40.528Z,101865.07
2019-01-11T20:22:11.471Z,101872.52
2019-01-11T20:24:43.387Z,101877.41
2019-01-11T20:27:13.697Z,101881.80
2019-01-11T20:29:45.094Z,101883.52
2019-01-11T20:32:15.900Z,101878.37
2019-01-11T20:34:46.358Z,101877.41
2019-01-11T20:37:31.210Z,101877.10
2019-01-11T20:40:01.558Z,101880.03
2019-01-11T20:42:32.385Z,101874.37
2019-01-11T20:45:02.687Z,101873.84
2019-01-11T20:47:33.517Z,101870.49
2019-01-11T20:50:04.013Z,101875.84
2019-01-11T20:52:34.305Z,101868.34
2019-01-11T20:55:05.270Z,101869.84
2019-01-11T20:57:38.337Z,101866.64
2019-01-11T21:00:17.778Z,101868.31
2019-01-11T21:02:48.204Z,101869.67
2019-01-11T21:05:19.659Z,101860.81
2019-01-11T21:07:50.605Z,101869.61
2019-01-11T21:10:21.322Z,101874.63
2019-01-11T21:12:51.656Z,101876.90
2019-01-11T21:15:22.267Z,101875.05
2019-01-11T21:17:53.046Z,101880.31
2019-01-11T21:20:23.512Z,101876.37
2019-01-11T21:22:55.521Z,101881.30
2019-01-11T21:25:25.906Z,101879.20
2019-01-11T21:27:56.749Z,101879.84
2019-01-11T21:30:31.281Z,101878.72
2019-01-11T21:33:01.775Z,101885.25
2019-01-11T21:35:32.171Z,101879.32
2019-01-11T21:38:03.778Z,101882.00
2019-01-11T21:40:34.082Z,101887.20
2019-01-11T21:43:04.881Z,101884.17
2019-01-11T21:45:35.214Z,101880.44
2019-01-11T21:48:06.213Z,101884.85
2019-01-11T21:50:36.685Z,101895.97
2019-01-11T21:53:08.137Z,101897.86
2019-01-11T21:55:38.405Z,101898.36
2019-01-11T21:58:09.918Z,101895.69
2019-01-11T22:00:42.491Z,101901.86
2019-01-11T22:03:23.407Z,101905.83
2019-01-11T22:05:53.702Z,101897.03
2019-01-11T22:08:25.150Z,101902.80
2019-01-11T22:10:55.470Z,101903.73
2019-01-11T22:13:25.860Z,101898.48
2019-01-11T22:15:56.159Z,101894.09
2019-01-11T22:18:27.035Z,101901.03
2019-01-11T22:20:57.563Z,101903.29
2019-01-11T22:23:28.369Z,101906.25
2019-01-11T22:25:58.659Z,101906.69
2019-01-11T22:28:29.602Z,101904.06
2019-01-11T22:30:59.918Z,101897.70
2019-01-11T22:33:30.317Z,101907.67
2019-01-11T22:36:00.675Z,101899.66
2019-01-11T22:38:32.623Z,101907.86
2019-01-11T22:41:02.987Z,101900.35
2019-01-11T22:43:33.391Z,101903.67
2019-01-11T22:46:03.673Z,101903.31
2019-01-11T22:48:34.709Z,101904.72
2019-01-11T22:51:05.041Z,101904.98
2019-01-11T22:53:36.611Z,101897.66
2019-01-11T22:56:06.901Z,101906.40
2019-01-11T22:58:39.107Z,101900.37
2019-01-11T23:01:41.693Z,101895.05
2019-01-11T23:04:11.998Z,101895.39
2019-01-11T23:06:59.965Z,101889.32
2019-01-11T23:09:38.405Z,101894.48
2019-01-11T23:12:36.692Z,101887.03
2019-01-11T23:15:13.190Z,101893.19
2019-01-11T23:17:47.449Z,101891.61
2019-01-11T23:20:17.879Z,101887.52
2019-01-11T23:22:48.617Z,101892.40
2019-01-11T23:25:19.989Z,101900.69
2019-01-11T23:27:50.282Z,101891.92
2019-01-11T23:30:20.559Z,101897.66
2019-01-11T23:32:51.556Z,101901.66
2019-01-11T23:35:21.838Z,101898.06
2019-01-11T23:37:52.232Z,101897.11
2019-01-11T23:40:22.555Z,101902.02
2019-01-11T23:42:53.576Z,101902.45
2019-01-11T23:45:23.996Z,101902.09
2019-01-11T23:47:55.713Z,101896.30
2019-01-11T23:50:26.133Z,101900.77
2019-01-11T23:52:56.445Z,101905.17
2019-01-11T23:55:27.255Z,101895.73
2019-01-11T23:57:58.937Z,101910.12
